Time;durP1;ratioP1;P1;durP2;ratioP2;P2;SDS_P1;SDS_P2;PMS_P1;PMS_P2;Temp;Humidity;BMP_temperature;BMP_pressure;BME280_temperature;BME280_humidity;BME280_pressure;Samples;Min_cycle;Max_cycle;Signal;HPM_P1;HPM_P2
2023/01/05 00:02:17;;;;;;;17.58;9.60;;;;;;;8.34;100.00;101805.44;5243864;28;20028;-87
2023/01/05 00:04:47;;;;;;;23.02;9.27;;;;;;;8.54;100.00;101824.97;5244172;28;20521;-86
2023/01/05 00:07:17;;;;;;;18.60;6.70;;;;;;;8.44;100.00;101806.59;5260095;28;20094;-85
2023/01/05 00:09:48;;;;;;;27.60;9.82;;;;;;;8.37;100.00;101818.47;5242574;28;20111;-87
2023/01/05 00:23:35;;;;;;;27.80;9.38;;;;;;;8.59;100.00;101802.78;5259608;28;20039;-86
2023/01/05 00:26:05;;;;;;;23.80;9.05;;;;;;;8.50;100.00;101777.97;5241391;28;20032;-87
2023/01/05 00:28:35;;;;;;;11.68;6.28;;;;;;;8.71;100.00;101815.28;5259758;28;20085;-84
2023/01/05 00:31:06;;;;;;;21.85;9.05;;;;;;;8.39;100.00;101759.84;5259270;28;20017;-87
2023/01/05 00:33:36;;;;;;;19.50;7.45;;;;;;;8.59;100.00;101814.38;5241209;28;20027;-84
2023/01/05 00:36:10;;;;;;;11.45;7.70;;;;;;;8.55;100.00;101836.56;5259050;28;20085;-85
2023/01/05 00:38:40;;;;;;;30.20;9.00;;;;;;;8.29;100.00;101781.03;5259574;28;20047;-84
2023/01/05 00:41:11;;;;;;;15.38;8.68;;;;;;;8.09;100.00;101757.75;5241198;28;20084;-85
2023/01/05 00:43:41;;;;;;;22.70;8.90;;;;;;;8.30;100.00;101805.03;5240852;28;20060;-87
2023/01/05 00:46:11;;;;;;;13.52;8.38;;;;;;;8.29;100.00;101795.31;5258770;28;20199;-86
2023/01/05 00:48:42;;;;;;;34.38;7.50;;;;;;;8.48;100.00;101820.44;5242472;28;20051;-85
2023/01/05 00:51:12;;;;;;;21.92;8.35;;;;;;;8.20;100.00;101777.75;5242942;28;20064;-86
2023/01/05 00:53:43;;;;;;;20.63;9.98;;;;;;;8.64;100.00;101813.72;5260473;28;20025;-87
2023/01/05 00:56:13;;;;;;;28.08;9.32;;;;;;;8.40;100.00;101773.06;5242329;28;20099;-88
2023/01/05 00:58:44;;;;;;;21.38;8.40;;;;;;;8.28;100.00;101753.28;5243115;28;20035;-88
2023/01/05 01:01:14;;;;;;;22.42;8.68;;;;;;;8.71;100.00;101809.88;5244383;28;20028;-85
2023/01/05 01:03:45;;;;;;;24.17;7.72;;;;;;;8.31;100.00;101746.66;5244253;28;20032;-86
2023/01/05 01:06:16;;;;;;;27.95;9.23;;;;;;;8.58;100.00;101799.25;5262536;28;20028;-86
2023/01/05 01:08:46;;;;;;;13.93;7.28;;;;;;;8.50;100.00;101779.84;5243257;28;20088;-87
2023/01/05 01:11:17;;;;;;;28.40;9.05;;;;;;;8.64;100.00;101790.28;5243247;28;20113;-87
2023/01/05 01:13:47;;;;;;;30.67;9.68;;;;;;;8.75;100.00;101792.25;5245085;28;20513;-86
2023/01/05 01:16:18;;;;;;;13.38;6.15;;;;;;;8.85;100.00;101820.56;5262972;28;20020;-85
2023/01/05 01:18:48;;;;;;;15.07;8.13;;;;;;;8.64;100.00;101787.59;5250008;28;20063;-88
2023/01/05 01:21:19;;;;;;;20.95;7.03;;;;;;;8.60;100.00;101796.34;5249356;28;20397;-86
2023/01/05 01:23:49;;;;;;;14.20;6.97;;;;;;;8.67;100.00;101803.28;5258054;28;20111;-87
2023/01/05 01:26:20;;;;;;;18.75;8.40;;;;;;;8.77;100.00;101810.88;5240437;28;20586;-87
2023/01/05 01:28:50;;;;;;;15.32;8.68;;;;;;;8.54;100.00;101781.88;5241209;28;20114;-86
2023/01/05 01:31:21;;;;;;;16.85;8.35;;;;;;;8.62;100.00;101808.53;5260015;28;20099;-86
2023/01/05 01:33:51;;;;;;;17.10;9.02;;;;;;;8.60;100.00;101815.19;5240978;28;20474;-86
2023/01/05 01:36:22;;;;;;;18.33;9.10;;;;;;;8.43;100.00;101772.63;5240440;28;20050;-86
2023/01/05 01:38:52;;;;;;;10.43;6.45;;;;;;;8.64;100.00;101828.00;5241859;28;20060;-87
2023/01/05 01:41:22;;;;;;;20.60;6.60;;;;;;;8.65;100.00;101839.59;5237966;28;20315;-85
2023/01/05 01:43:55;;;;;;;8.93;8.05;;;;;;;8.76;100.00;101847.75;5256033;28;20032;-87
2023/01/05 01:46:26;;;;;;;15.00;7.65;;;;;;;8.27;100.00;101777.72;5238141;28;20039;-86
2023/01/05 01:49:07;;;;;;;17.98;7.80;;;;;;;8.87;100.00;101850.78;5238048;28;20497;-87
2023/01/05 01:51:43;;;;;;;12.10;6.57;;;;;;;8.95;100.00;101845.13;5255682;28;20028;-87
2023/01/05 01:54:17;;;;;;;11.15;6.18;;;;;;;8.97;100.00;101853.78;5237816;28;20025;-85
2023/01/05 01:56:52;;;;;;;18.80;7.22;;;;;;;9.04;100.00;101854.56;5255672;28;20042;-86
2023/01/05 01:59:24;;;;;;;21.45;8.13;;;;;;;8.91;100.00;101833.16;5256012;28;20083;-87
2023/01/05 02:01:58;;;;;;;18.00;7.38;;;;;;;8.70;100.00;101799.34;5255165;28;20032;-86
2023/01/05 02:04:31;;;;;;;15.10;7.60;;;;;;;9.13;100.00;101874.81;5255344;28;21739;-88
2023/01/05 02:07:02;;;;;;;15.63;8.27;;;;;;;9.08;100.00;101853.91;5255071;28;20052;-88
2023/01/05 02:09:33;;;;;;;14.82;8.27;;;;;;;9.16;100.00;101876.22;5237605;28;20035;-86
2023/01/05 02:12:25;;;;;;;18.25;7.00;;;;;;;9.14;100.00;101877.28;5259105;28;20086;-87
2023/01/05 02:15:26;;;;;;;12.35;7.28;;;;;;;8.92;100.00;101838.31;5241929;28;20050;-86
2023/01/05 02:18:05;;;;;;;19.92;8.02;;;;;;;9.18;100.00;101866.88;5242149;28;20038;-85
2023/01/05 02:20:51;;;;;;;20.77;9.07;;;;;;;9.17;100.00;101870.63;5241726;28;20703;-87
2023/01/05 02:23:43;;;;;;;14.27;6.78;;;;;;;9.17;100.00;101878.72;5259415;28;20109;-86
2023/01/05 02:26:44;;;;;;;16.90;7.15;;;;;;;9.18;100.00;101866.88;5241708;28;20024;-87
2023/01/05 02:29:26;;;;;;;23.35;8.85;;;;;;;9.16;100.00;101874.38;5242938;28;20478;-85
2023/01/05 02:32:14;;;;;;;16.50;7.32;;;;;;;9.18;100.00;101877.66;5259557;28;20047;-85
2023/01/05 02:35:18;;;;;;;22.83;10.25;;;;;;;8.95;100.00;101837.06;5241421;28;20060;-87
2023/01/05 02:38:01;;;;;;;18.27;8.57;;;;;;;9.19;100.00;101873.94;5229738;28;20056;-85
2023/01/05 02:40:42;;;;;;;14.38;6.38;;;;;;;9.21;100.00;101879.91;5259359;28;20024;-87
2023/01/05 02:43:16;;;;;;;21.15;8.93;;;;;;;9.01;100.00;101838.84;5259077;28;20024;-88
2023/01/05 02:45:47;;;;;;;10.15;7.72;;;;;;;9.25;100.00;101875.72;5242319;28;20028;-88
2023/01/05 02:48:18;;;;;;;20.25;8.32;;;;;;;9.07;100.00;101849.56;5242384;28;20032;-86
2023/01/05 02:51:03;;;;;;;22.65;9.27;;;;;;;8.94;100.00;101816.56;5241661;28;20029;-87
2023/01/05 02:53:42;;;;;;;16.52;8.23;;;;;;;8.99;100.00;101825.59;5260420;28;20021;-85
2023/01/05 02:56:18;;;;;;;18.85;5.70;;;;;;;9.11;100.00;101839.16;5260428;28;20051;-86
2023/01/05 02:58:54;;;;;;;14.88;6.40;;;;;;;8.92;100.00;101806.00;5242911;28;20029;-86
2023/01/05 03:01:30;;;;;;;15.13;7.60;;;;;;;8.98;100.00;101810.47;5241691;28;20028;-87
2023/01/05 03:04:27;;;;;;;22.23;7.95;;;;;;;9.11;100.00;101845.38;5259049;28;20044;-88
2023/01/05 03:07:04;;;;;;;14.20;6.15;;;;;;;8.86;100.00;101814.13;5242142;28;20025;-85
2023/01/05 03:09:39;;;;;;;21.30;7.32;;;;;;;9.13;100.00;101853.25;5242430;28;20024;-86
2023/01/05 03:15:24;;;;;;;10.45;7.50;;;;;;;9.23;100.00;101874.31;5260202;28;20098;-85
2023/01/05 03:17:58;;;;;;;11.70;8.65;;;;;;;9.27;100.00;101887.09;5240512;28;20043;-89
2023/01/05 03:20:31;;;;;;;20.60;6.40;;;;;;;9.30;100.00;101880.44;5240501;28;20091;-87
2023/01/05 03:37:56;;;;;;;19.58;7.85;;;;;;;9.30;100.00;101889.34;5258381;28;20055;-87
2023/01/05 03:40:32;;;;;;;17.50;7.45;;;;;;;9.12;100.00;101865.91;5258676;28;20024;-86
2023/01/05 03:43:03;;;;;;;11.32;8.30;;;;;;;9.24;100.00;101870.56;5265652;22;20568;-64
2023/01/05 03:45:49;;;;;;;15.88;8.73;;;;;;;9.35;100.00;101883.28;5227757;28;20104;-65
2023/01/05 03:48:21;;;;;;;14.00;7.40;;;;;;;9.35;100.00;101886.81;5224476;28;20031;-65
2023/01/05 03:50:52;;;;;;;14.50;6.97;;;;;;;9.35;100.00;101886.81;5224455;28;20021;-64
2023/01/05 03:53:22;;;;;;;20.52;7.82;;;;;;;9.36;100.00;101883.06;5224047;28;20025;-65
2023/01/05 03:55:52;;;;;;;25.25;9.88;;;;;;;9.14;100.00;101850.34;5224572;28;20112;-65
2023/01/05 03:58:23;;;;;;;16.15;8.20;;;;;;;9.38;100.00;101889.06;5228420;28;20025;-65
2023/01/05 04:00:53;;;;;;;18.30;8.60;;;;;;;9.39;100.00;101890.72;5227846;28;20796;-65
2023/01/05 04:03:24;;;;;;;20.52;6.53;;;;;;;9.39;100.00;101901.50;5227648;28;20021;-65
2023/01/05 04:05:54;;;;;;;15.23;8.85;;;;;;;9.39;100.00;101897.97;5227508;28;20112;-65
2023/01/05 04:08:24;;;;;;;16.27;6.80;;;;;;;9.37;100.00;101900.91;5209839;28;20518;-65
2023/01/05 04:10:55;;;;;;;19.13;6.97;;;;;;;9.38;100.00;101902.53;5228055;28;20052;-65
2023/01/05 04:13:26;;;;;;;19.10;7.85;;;;;;;9.38;100.00;101910.63;5227518;28;20113;-65
2023/01/05 04:15:56;;;;;;;23.00;9.23;;;;;;;9.39;100.00;101903.38;5227579;28;20467;-65
2023/01/05 04:18:26;;;;;;;18.80;7.93;;;;;;;9.41;100.00;101904.81;5227413;28;20451;-65
2023/01/05 04:20:57;;;;;;;26.00;9.57;;;;;;;9.40;100.00;101919.31;5227878;28;20100;-65
2023/01/05 04:23:27;;;;;;;23.85;10.40;;;;;;;9.46;100.00;101915.75;5227197;28;20033;-65
2023/01/05 04:25:58;;;;;;;12.95;7.43;;;;;;;9.48;100.00;101910.97;5227486;28;20024;-65
2023/01/05 04:28:28;;;;;;;15.65;7.43;;;;;;;9.26;100.00;101885.44;5227623;28;20040;-64
2023/01/05 04:30:59;;;;;;;28.83;8.43;;;;;;;9.48;100.00;101910.13;5227328;28;20033;-65
2023/01/05 04:33:29;;;;;;;22.67;8.07;;;;;;;9.49;100.00;101917.19;5226896;28;20025;-64
2023/01/05 04:35:59;;;;;;;14.70;7.45;;;;;;;9.50;100.00;101918.00;5227147;28;20048;-66
2023/01/05 04:38:30;;;;;;;10.65;7.60;;;;;;;9.32;100.00;101899.91;5227359;28;20534;-65
2023/01/05 04:41:00;;;;;;;17.13;7.00;;;;;;;9.47;100.00;101912.00;5209179;28;20025;-65
2023/01/05 04:43:31;;;;;;;26.38;9.95;;;;;;;9.47;100.00;101905.78;5226911;28;20040;-65
2023/01/05 04:46:01;;;;;;;23.70;7.18;;;;;;;9.46;100.00;101913.06;5226945;28;20028;-65
2023/01/05 04:48:31;;;;;;;13.10;7.38;;;;;;;9.42;100.00;101906.44;5226847;28;20396;-65
2023/01/05 04:51:02;;;;;;;36.50;8.93;;;;;;;9.41;100.00;101910.19;5226815;28;20028;-65
2023/01/05 04:53:32;;;;;;;19.98;7.95;;;;;;;9.40;100.00;101915.81;5226336;28;20071;-65
2023/01/05 04:56:03;;;;;;;22.33;7.65;;;;;;;9.35;100.00;101904.84;5226708;28;20418;-65
2023/01/05 04:58:33;;;;;;;17.85;9.32;;;;;;;9.35;100.00;101916.47;5226628;28;20025;-64
2023/01/05 05:01:04;;;;;;;21.52;8.30;;;;;;;9.32;100.00;101916.09;5226719;28;20020;-65
2023/01/05 05:03:34;;;;;;;11.80;6.57;;;;;;;9.27;100.00;101914.03;5226681;28;20081;-65
2023/01/05 05:06:05;;;;;;;14.90;8.82;;;;;;;9.26;100.00;101914.25;5226517;28;20024;-65
2023/01/05 05:08:36;;;;;;;16.38;7.20;;;;;;;9.27;100.00;101911.34;5226625;28;20063;-64
2023/01/05 05:11:06;;;;;;;19.02;6.55;;;;;;;9.30;100.00;101923.56;5226594;28;20040;-64
2023/01/05 05:13:36;;;;;;;14.00;7.82;;;;;;;9.28;100.00;101910.31;5208339;28;20017;-66
2023/01/05 05:16:07;;;;;;;13.95;9.45;;;;;;;9.30;100.00;101907.38;5226390;28;20119;-64
2023/01/05 05:18:37;;;;;;;16.77;7.35;;;;;;;9.27;100.00;101919.44;5226331;28;20412;-65
2023/01/05 05:21:08;;;;;;;23.80;9.68;;;;;;;9.25;100.00;101921.53;5226455;28;20465;-64
2023/01/05 05:23:38;;;;;;;14.20;7.55;;;;;;;9.22;100.00;101916.59;5226737;28;20036;-64
2023/01/05 05:26:08;;;;;;;14.40;8.60;;;;;;;9.16;100.00;101933.66;5226630;28;20056;-63
2023/01/05 05:28:39;;;;;;;27.33;8.75;;;;;;;9.07;100.00;101929.56;5226316;28;20492;-65
2023/01/05 05:31:09;;;;;;;9.75;7.38;;;;;;;9.12;100.00;101935.13;5226056;28;20025;-66
2023/01/05 05:33:40;;;;;;;18.45;8.38;;;;;;;9.13;100.00;101950.25;5225824;28;20025;-64
2023/01/05 05:36:10;;;;;;;20.83;9.55;;;;;;;9.15;100.00;101950.88;5226144;28;20021;-65
2023/01/05 05:38:41;;;;;;;14.50;8.73;;;;;;;9.16;100.00;101952.50;5226104;28;20032;-65
2023/01/05 05:41:11;;;;;;;20.15;9.45;;;;;;;9.16;100.00;101959.78;5226029;28;20469;-65
2023/01/05 05:43:42;;;;;;;32.75;11.00;;;;;;;9.19;100.00;101957.47;5207792;28;20037;-65
2023/01/05 05:46:12;;;;;;;15.18;8.63;;;;;;;9.20;100.00;101961.00;5225990;28;20021;-65
2023/01/05 05:48:42;;;;;;;25.73;10.18;;;;;;;9.24;100.00;101967.59;5225888;28;20025;-65
2023/01/05 05:51:13;;;;;;;24.05;9.90;;;;;;;9.25;100.00;101970.03;5225752;28;20029;-65
2023/01/05 05:53:43;;;;;;;27.00;10.85;;;;;;;9.17;100.00;101954.16;5225780;28;20017;-65
2023/01/05 05:56:13;;;;;;;22.60;10.90;;;;;;;9.16;100.00;101943.59;5254058;23;20049;-91
2023/01/05 05:58:44;;;;;;;16.90;8.20;;;;;;;9.34;100.00;101970.59;5237976;28;20027;-90
2023/01/05 06:01:14;;;;;;;22.67;10.45;;;;;;;9.35;100.00;101991.94;5236839;28;20025;-90
2023/01/05 06:03:45;;;;;;;18.42;8.75;;;;;;;8.58;100.00;101853.09;5234845;28;20017;-90
2023/01/05 06:06:15;;;;;;;42.72;11.30;;;;;;;8.90;100.00;101913.13;5237080;28;20125;-91
2023/01/05 06:08:46;;;;;;;18.00;8.38;;;;;;;9.29;100.00;101982.03;5238162;28;20118;-90
2023/01/05 06:11:16;;;;;;;25.15;8.65;;;;;;;8.95;100.00;101910.59;5253132;28;20037;-90
2023/01/05 06:13:50;;;;;;;20.45;9.07;;;;;;;9.18;100.00;101945.03;5236018;28;20024;-89
2023/01/05 06:16:20;;;;;;;27.63;8.70;;;;;;;9.06;100.00;101930.63;5236788;28;20549;-89
2023/01/05 06:18:50;;;;;;;16.70;7.53;;;;;;;9.06;100.00;101933.31;5235637;28;20055;-90
2023/01/05 06:21:22;;;;;;;18.63;7.88;;;;;;;9.43;100.00;102007.03;5235504;28;20025;-90
2023/01/05 06:23:52;;;;;;;19.77;9.98;;;;;;;8.82;100.00;101893.72;5236964;28;20017;-90
2023/01/05 06:26:22;;;;;;;28.33;9.70;;;;;;;9.11;100.00;101963.94;5236113;28;20017;-89
2023/01/05 06:28:53;;;;;;;26.15;10.20;;;;;;;8.19;100.00;101803.03;5237715;28;20056;-90
2023/01/05 06:31:23;;;;;;;28.45;10.93;;;;;;;9.42;100.00;102010.78;5252378;28;20052;-88
2023/01/05 06:33:54;;;;;;;15.48;10.00;;;;;;;9.17;100.00;101958.72;5235300;28;20056;-90
2023/01/05 06:36:25;;;;;;;19.40;9.48;;;;;;;9.48;100.00;102024.19;5237661;28;20029;-90
2023/01/05 06:38:57;;;;;;;18.00;8.75;;;;;;;8.93;100.00;101918.09;5235937;28;20059;-90
2023/01/05 06:41:31;;;;;;;36.17;9.45;;;;;;;7.90;100.00;101761.41;5235747;28;20029;-89
2023/01/05 06:44:01;;;;;;;16.48;11.40;;;;;;;8.22;100.00;101842.13;5237154;28;20032;-88
2023/01/05 06:46:32;;;;;;;14.00;8.45;;;;;;;9.35;100.00;102045.88;5236930;28;20025;-90
2023/01/05 06:49:02;;;;;;;30.52;9.00;;;;;;;8.00;100.00;101794.03;5239629;28;20025;-90
2023/01/05 06:51:32;;;;;;;24.67;9.50;;;;;;;7.89;100.00;101775.88;5252121;28;20017;-90
2023/01/05 06:54:03;;;;;;;16.85;10.38;;;;;;;8.01;100.00;101825.28;5244901;28;20059;-90
2023/01/05 06:56:33;;;;;;;14.48;10.05;;;;;;;8.79;100.00;101938.06;5239092;28;20048;-90
2023/01/05 06:59:04;;;;;;;14.30;8.25;;;;;;;9.21;100.00;102006.59;5237070;28;20021;-90
2023/01/05 07:01:34;;;;;;;21.70;10.63;;;;;;;8.91;100.00;101957.06;5238633;28;20117;-89
2023/01/05 07:04:05;;;;;;;20.95;8.00;;;;;;;7.38;100.00;101701.53;5237065;28;20025;-90
2023/01/05 07:06:35;;;;;;;42.28;12.43;;;;;;;7.47;100.00;101720.09;5235692;28;20027;-89
2023/01/05 07:09:08;;;;;;;24.20;8.85;;;;;;;9.39;100.00;102028.22;5236609;28;20056;-89
2023/01/05 07:11:41;;;;;;;32.17;10.40;;;;;;;8.26;100.00;101854.94;5235188;28;20021;-90
2023/01/05 07:14:12;;;;;;;19.65;10.00;;;;;;;9.32;100.00;102024.72;5234472;28;20025;-88
2023/01/05 07:16:42;;;;;;;24.92;10.65;;;;;;;8.33;100.00;101865.69;5235042;28;20100;-89
2023/01/05 07:19:12;;;;;;;27.75;10.95;;;;;;;7.75;100.00;101814.66;5236034;28;20024;-89
2023/01/05 07:21:43;;;;;;;18.55;9.23;;;;;;;9.37;100.00;102059.94;5235630;28;20108;-87
2023/01/05 07:24:13;;;;;;;19.98;9.32;;;;;;;9.14;100.00;102013.88;5235016;28;20025;-89
2023/01/05 07:26:44;;;;;;;18.25;7.03;;;;;;;8.35;100.00;101885.16;5235239;28;20021;-89
2023/01/05 07:29:15;;;;;;;45.55;9.43;;;;;;;9.19;100.00;102035.63;5236062;28;20052;-90
2023/01/05 07:31:47;;;;;;;27.63;10.18;;;;;;;9.38;100.00;102053.50;5238972;28;20029;-94
2023/01/05 07:34:19;;;;;;;19.02;10.23;;;;;;;8.65;100.00;101942.75;5240131;28;20021;-89
2023/01/05 07:36:49;;;;;;;17.25;9.60;;;;;;;9.36;100.00;102068.25;5238834;28;20024;-89
2023/01/05 07:39:20;;;;;;;18.00;10.02;;;;;;;9.34;100.00;102065.78;5240307;28;20116;-89
2023/01/05 07:41:50;;;;;;;14.40;9.48;;;;;;;8.70;100.00;101961.72;5239366;28;20498;-90
2023/01/05 07:44:21;;;;;;;32.03;8.70;;;;;;;8.48;100.00;101936.19;5240197;28;20183;-90
2023/01/05 07:46:51;;;;;;;34.53;11.68;;;;;;;9.21;100.00;102038.94;5240116;28;20029;-90
2023/01/05 07:49:21;;;;;;;31.52;10.98;;;;;;;8.76;100.00;101977.03;5239870;28;20025;-87
2023/01/05 07:51:52;;;;;;;22.23;10.80;;;;;;;8.69;100.00;101970.03;5236682;28;20021;-88
2023/01/05 07:54:22;;;;;;;21.90;9.00;;;;;;;9.10;100.00;102031.53;5237815;28;20028;-89
2023/01/05 07:56:53;;;;;;;20.38;10.63;;;;;;;8.61;100.00;101987.28;5239175;28;20502;-93
2023/01/05 07:59:29;;;;;;;33.35;10.68;;;;;;;9.32;100.00;102084.03;5239083;28;20027;-90
2023/01/05 08:01:59;;;;;;;21.40;9.68;;;;;;;8.49;100.00;101961.25;5238881;28;20051;-89
2023/01/05 08:04:30;;;;;;;25.65;10.00;;;;;;;9.32;100.00;102097.50;5254840;28;20478;-88
2023/01/05 08:07:01;;;;;;;16.25;9.20;;;;;;;8.95;100.00;102041.81;5238200;28;20021;-88
2023/01/05 08:12:20;;;;;;;15.77;6.88;;;;;;;9.02;100.00;102047.94;5238650;28;20055;-89
2023/01/05 08:14:51;;;;;;;30.33;8.30;;;;;;;8.50;100.00;101955.66;5238846;28;20025;-89
2023/01/05 08:17:21;;;;;;;34.40;9.70;;;;;;;9.04;100.00;102088.97;5238995;28;20020;-88
2023/01/05 08:19:52;;;;;;;20.08;8.95;;;;;;;8.80;100.00;102021.34;5239709;28;20044;-89
2023/01/05 08:22:22;;;;;;;22.83;8.40;;;;;;;8.99;100.00;102045.69;5237432;28;20032;-88
2023/01/05 08:24:53;;;;;;;31.80;9.15;;;;;;;9.27;100.00;102091.13;5264286;28;20032;-89
2023/01/05 08:27:23;;;;;;;20.85;9.63;;;;;;;9.19;100.00;102067.97;5254296;28;20024;-88
2023/01/05 08:29:53;;;;;;;27.75;10.23;;;;;;;9.45;100.00;102120.88;5239959;28;20058;-89
2023/01/05 08:32:24;;;;;;;30.55;12.68;;;;;;;9.45;100.00;102100.13;5238993;28;20471;-89
2023/01/05 08:34:54;;;;;;;22.20;9.25;;;;;;;8.90;100.00;102012.81;5240283;28;20025;-89
2023/01/05 08:37:25;;;;;;;27.33;10.50;;;;;;;8.53;100.00;101944.44;5240068;28;20129;-90
2023/01/05 08:39:56;;;;;;;20.42;11.48;;;;;;;9.22;100.00;102054.06;5238304;28;20394;-91
2023/01/05 08:42:26;;;;;;;34.88;10.35;;;;;;;9.19;100.00;102050.97;5237518;28;20454;-87
2023/01/05 08:44:57;;;;;;;23.08;9.38;;;;;;;9.52;100.00;102110.88;5238542;28;20025;-89
2023/01/05 08:47:27;;;;;;;27.80;8.35;;;;;;;9.30;100.00;102086.13;5238393;28;20068;-88
2023/01/05 08:49:57;;;;;;;23.30;9.35;;;;;;;9.54;100.00;102118.72;5238552;28;20031;-89
2023/01/05 08:52:28;;;;;;;20.23;9.45;;;;;;;8.84;100.00;102015.53;5238286;28;20021;-89
2023/01/05 08:54:58;;;;;;;17.05;8.85;;;;;;;9.50;100.00;102126.44;5238199;28;20085;-89
2023/01/05 08:57:29;;;;;;;13.80;8.13;;;;;;;8.58;100.00;101962.66;5239164;28;20474;-89
2023/01/05 09:00:00;;;;;;;34.50;12.50;;;;;;;9.28;100.00;102117.84;5236869;28;20021;-88
2023/01/05 09:02:30;;;;;;;25.52;9.00;;;;;;;9.69;100.00;102157.84;5237924;28;20032;-90
2023/01/05 09:05:01;;;;;;;23.10;11.90;;;;;;;8.90;100.00;102057.78;5237894;28;20052;-89
2023/01/05 09:07:31;;;;;;;38.63;10.57;;;;;;;9.39;100.00;102089.38;5238442;28;20017;-90
2023/01/05 09:10:02;;;;;;;30.80;8.57;;;;;;;9.42;100.00;102094.34;5238341;28;20021;-89
2023/01/05 09:12:37;;;;;;;22.85;9.15;;;;;;;9.67;100.00;102151.84;5236297;28;20035;-90
2023/01/05 09:15:07;;;;;;;20.60;10.98;;;;;;;9.83;100.00;102145.06;5236686;28;20024;-90
2023/01/05 09:17:37;;;;;;;23.75;10.60;;;;;;;8.78;100.00;101983.03;5236766;28;20031;-89
2023/01/05 09:20:08;;;;;;;23.52;10.75;;;;;;;9.44;100.00;102074.22;5237036;28;20437;-89
2023/01/05 09:22:39;;;;;;;24.02;9.80;;;;;;;9.85;100.00;102158.34;5237847;28;20121;-89
2023/01/05 09:25:09;;;;;;;33.65;12.00;;;;;;;9.85;100.00;102147.53;5236394;28;20087;-90
2023/01/05 09:27:40;;;;;;;28.70;11.70;;;;;;;9.83;100.00;102153.16;5238156;28;20021;-89
2023/01/05 09:30:11;;;;;;;33.08;12.20;;;;;;;9.61;100.00;102130.28;5236605;28;20020;-90
2023/01/05 09:32:42;;;;;;;31.63;11.15;;;;;;;9.67;100.00;102129.44;5237552;28;20028;-90
2023/01/05 09:35:12;;;;;;;25.67;11.52;;;;;;;9.11;100.00;102038.56;5236335;28;20449;-89
2023/01/05 09:37:43;;;;;;;47.50;13.27;;;;;;;9.61;100.00;102120.34;5237036;28;20067;-89
2023/01/05 09:40:13;;;;;;;19.80;11.13;;;;;;;8.96;100.00;102008.41;5237943;28;20028;-89
2023/01/05 09:42:46;;;;;;;29.70;12.10;;;;;;;9.88;100.00;102149.81;5253565;23;20048;-90
2023/01/05 09:45:25;;;;;;;27.02;9.40;;;;;;;9.54;100.00;102103.38;5217937;28;20029;-90
2023/01/05 09:47:58;;;;;;;17.27;7.50;;;;;;;8.97;100.00;102031.59;5223962;28;20033;-91
2023/01/05 09:50:32;;;;;;;20.33;10.63;;;;;;;9.13;100.00;102048.09;5224330;28;20029;-92
2023/01/05 09:53:04;;;;;;;19.52;9.30;;;;;;;9.68;100.00;102136.47;5243949;28;20020;-92
2023/01/05 09:55:36;;;;;;;24.33;10.15;;;;;;;9.67;100.00;102140.22;5229075;28;20406;-91
2023/01/05 09:58:14;;;;;;;24.00;9.27;;;;;;;9.55;100.00;102147.34;5249063;28;20025;-91
2023/01/05 10:01:09;;;;;;;23.52;11.65;;;;;;;9.68;100.00;102171.53;5244756;28;20021;-91
2023/01/05 10:03:47;;;;;;;25.10;10.95;;;;;;;9.70;100.00;102178.38;5240357;28;20045;-89
2023/01/05 10:06:19;;;;;;;22.60;11.10;;;;;;;9.57;100.00;102159.56;5221697;28;20021;-88
2023/01/05 10:08:50;;;;;;;25.55;12.75;;;;;;;9.60;100.00;102174.50;5238390;28;20047;-89
2023/01/05 10:14:48;;;;;;;18.25;10.20;;;;;;;9.12;100.00;102054.53;5240145;28;20036;-89
2023/01/05 10:17:21;;;;;;;20.63;10.45;;;;;;;9.89;100.00;102183.84;5239393;28;20029;-91
2023/01/05 10:19:52;;;;;;;17.42;10.13;;;;;;;9.51;100.00;102113.78;5222251;28;20021;-90
2023/01/05 10:22:41;;;;;;;20.27;10.93;;;;;;;9.92;100.00;102186.09;5238740;28;20499;-91
2023/01/05 10:25:17;;;;;;;21.45;10.57;;;;;;;9.99;100.00;102185.00;5220771;28;20029;-91
2023/01/05 10:28:25;;;;;;;21.20;9.75;;;;;;;10.09;100.00;102182.66;5237685;28;20448;-91
2023/01/05 10:31:17;;;;;;;25.15;10.18;;;;;;;9.81;100.00;102126.44;5238744;28;20060;-90
2023/01/05 10:33:53;;;;;;;23.27;9.00;;;;;;;9.78;100.00;102113.38;5240840;28;20364;-90
2023/01/05 10:36:42;;;;;;;20.45;9.80;;;;;;;10.43;100.00;102177.78;5220225;28;20040;-90
2023/01/05 10:39:30;;;;;;;25.95;9.88;;;;;;;10.45;100.00;102181.09;5239639;28;20021;-88
2023/01/05 10:42:10;;;;;;;22.08;11.32;;;;;;;10.58;100.00;102186.38;5237333;28;20033;-91
2023/01/05 10:44:47;;;;;;;34.00;10.65;;;;;;;10.64;100.00;102190.88;5238597;28;20032;-90
2023/01/05 10:47:21;;;;;;;27.77;10.63;;;;;;;10.50;100.00;102146.13;5223144;28;20475;-93
2023/01/05 10:49:53;;;;;;;24.65;10.13;;;;;;;10.20;100.00;102096.63;5224839;28;20104;-90
2023/01/05 10:52:23;;;;;;;19.77;9.80;;;;;;;10.28;100.00;102086.34;5238881;28;20025;-90
2023/01/05 10:54:59;;;;;;;17.63;9.77;;;;;;;10.32;100.00;102094.84;5239052;28;20104;-91
2023/01/05 10:57:37;;;;;;;16.40;8.10;;;;;;;10.93;100.00;102192.03;5240181;28;20075;-89
2023/01/05 11:00:16;;;;;;;16.38;10.63;;;;;;;10.69;100.00;102182.09;5242784;28;20021;-91
2023/01/05 11:02:59;;;;;;;23.90;8.77;;;;;;;10.63;100.00;102172.19;5240574;28;20029;-89
2023/01/05 11:05:33;;;;;;;16.13;8.90;;;;;;;10.75;100.00;102192.00;5243166;28;20028;-90
2023/01/05 11:08:17;;;;;;;25.33;11.13;;;;;;;10.69;100.00;102192.88;5226668;28;20028;-90
2023/01/05 11:11:02;;;;;;;17.27;9.57;;;;;;;10.66;100.00;102190.66;5241764;28;20063;-89
2023/01/05 11:13:36;;;;;;;25.35;9.15;;;;;;;10.38;100.00;102148.78;5225331;28;20130;-90
2023/01/05 11:16:08;;;;;;;20.17;8.20;;;;;;;10.64;100.00;102190.88;5244718;28;20025;-91
2023/01/05 11:18:49;;;;;;;15.55;8.57;;;;;;;10.30;100.00;102151.75;5233241;28;20029;-90
2023/01/05 11:21:23;;;;;;;18.48;9.50;;;;;;;10.57;100.00;102182.03;5225134;28;20022;-89
2023/01/05 11:23:56;;;;;;;16.52;8.63;;;;;;;10.24;100.00;102132.91;5222379;28;20052;-89
2023/01/05 11:26:35;;;;;;;21.00;9.85;;;;;;;9.44;100.00;102014.91;5222539;28;20033;-90
2023/01/05 11:29:12;;;;;;;21.20;9.07;;;;;;;10.35;100.00;102203.22;5221913;28;20026;-90
2023/01/05 11:32:01;;;;;;;27.42;10.50;;;;;;;10.33;100.00;102177.50;5222875;28;20029;-91
2023/01/05 11:34:47;;;;;;;19.15;8.07;;;;;;;9.77;100.00;102079.34;5204171;28;20383;-90
2023/01/05 11:37:28;;;;;;;25.58;9.55;;;;;;;9.64;100.00;102040.84;5204252;28;20025;-90
2023/01/05 11:40:01;;;;;;;22.75;10.35;;;;;;;10.60;100.00;102178.06;5221783;28;20026;-89
2023/01/05 11:42:35;;;;;;;16.42;8.93;;;;;;;10.80;100.00;102171.38;5220223;28;20156;-89
2023/01/05 11:45:17;;;;;;;15.80;8.98;;;;;;;10.75;100.00;102140.66;5203166;28;20053;-90
2023/01/05 11:48:02;;;;;;;22.20;9.35;;;;;;;11.05;100.00;102175.84;5202579;28;20056;-90
2023/01/05 11:50:46;;;;;;;25.95;9.82;;;;;;;10.80;100.00;102125.44;5203574;28;20013;-90
2023/01/05 11:53:32;;;;;;;31.55;9.43;;;;;;;11.05;100.00;102165.88;5202916;28;20030;-90
2023/01/05 11:56:14;;;;;;;24.20;7.68;;;;;;;10.95;100.00;102145.84;5221280;28;20045;-90
2023/01/05 11:58:46;;;;;;;20.75;11.00;;;;;;;10.91;100.00;102120.31;5203807;28;20163;-91
2023/01/05 12:01:43;;;;;;;21.15;9.77;;;;;;;11.27;100.00;102165.38;5203900;28;20026;-89
2023/01/05 12:04:13;;;;;;;17.48;8.55;;;;;;;11.31;100.00;102161.16;5202897;28;20461;-90
2023/01/05 12:06:56;;;;;;;28.45;8.57;;;;;;;10.95;100.00;102103.44;5203073;28;20052;-89
2023/01/05 12:09:49;;;;;;;18.05;9.50;;;;;;;11.02;100.00;102095.22;5204312;28;20036;-89
2023/01/05 12:12:51;;;;;;;12.98;7.43;;;;;;;11.46;100.00;102157.00;5228972;28;20021;-91
2023/01/05 12:15:32;;;;;;;22.15;8.05;;;;;;;11.50;100.00;102150.09;5227094;28;20032;-89
2023/01/05 12:18:05;;;;;;;18.63;7.88;;;;;;;11.59;100.00;102153.25;5220519;28;20022;-90
2023/01/05 12:20:38;;;;;;;20.25;8.80;;;;;;;11.61;100.00;102151.16;5221576;28;20034;-91